createdAt,value
2023-01-09T00:00:27.934Z,73.63
2023-01-09T00:02:59.883Z,73.59
2023-01-09T00:05:31.645Z,73.54
2023-01-09T00:08:03.396Z,73.29
2023-01-09T00:10:35.109Z,73.00
2023-01-09T00:13:06.783Z,72.85
2023-01-09T00:15:39.902Z,72.90
2023-01-09T00:18:11.572Z,72.77
2023-01-09T00:20:43.290Z,72.70
2023-01-09T00:23:17.958Z,72.62
2023-01-09T00:26:11.326Z,72.41
2023-01-09T00:28:43.625Z,72.59
2023-01-09T00:31:15.966Z,72.15
2023-01-09T00:34:01.125Z,72.29
2023-01-09T00:36:33.090Z,72.63
2023-01-09T00:39:05.643Z,72.53
2023-01-09T00:41:47.292Z,72.39
2023-01-09T00:44:31.785Z,72.10
2023-01-09T00:47:13.719Z,72.38
2023-01-09T00:49:45.988Z,72.29
2023-01-09T00:52:18.987Z,72.12
2023-01-09T00:54:53.492Z,71.95
2023-01-09T00:57:25.193Z,71.84
2023-01-09T00:59:59.109Z,71.84
2023-01-09T01:02:30.943Z,71.59
2023-01-09T01:05:21.075Z,71.84
2023-01-09T01:07:52.717Z,71.83
2023-01-09T01:10:26.516Z,71.90
2023-01-09T01:12:58.154Z,71.73
2023-01-09T01:15:29.829Z,71.68
2023-01-09T01:18:01.541Z,71.72
2023-01-09T01:20:33.632Z,71.41
2023-01-09T01:23:05.361Z,71.68
2023-01-09T01:25:39.263Z,71.83
2023-01-09T01:28:11.334Z,71.70
2023-01-09T01:30:43.562Z,71.79
2023-01-09T01:33:15.292Z,71.94
2023-01-09T01:35:46.969Z,72.01
2023-01-09T01:38:18.651Z,71.96
2023-01-09T01:40:54.715Z,72.20
2023-01-09T01:43:26.495Z,72.56
2023-01-09T01:45:58.170Z,72.58
2023-01-09T01:48:30.624Z,72.48
2023-01-09T01:51:06.088Z,72.67
2023-01-09T01:53:51.643Z,73.23
2023-01-09T01:56:30.405Z,73.11
2023-01-09T01:59:14.503Z,73.12
2023-01-09T02:01:49.970Z,73.02
2023-01-09T02:04:24.199Z,73.44
2023-01-09T02:06:56.925Z,73.29
2023-01-09T02:09:28.873Z,73.00
2023-01-09T02:12:01.298Z,73.07
2023-01-09T02:14:32.991Z,73.02
2023-01-09T02:17:19.377Z,73.16
2023-01-09T02:20:09.771Z,73.29
2023-01-09T02:22:43.537Z,73.35
2023-01-09T02:25:39.785Z,73.42
2023-01-09T02:28:40.135Z,73.30
2023-01-09T02:31:59.274Z,73.79
2023-01-09T02:34:49.293Z,73.60
2023-01-09T02:37:26.652Z,74.26
2023-01-09T02:40:10.357Z,74.10
2023-01-09T02:42:44.568Z,74.18
2023-01-09T02:45:16.307Z,74.32
2023-01-09T02:47:51.218Z,74.53
2023-01-09T02:50:30.905Z,74.78
2023-01-09T02:53:08.342Z,74.70
2023-01-09T02:56:10.714Z,74.46
2023-01-09T02:59:16.294Z,74.35
2023-01-09T03:02:12.729Z,74.08
2023-01-09T03:04:48.802Z,74.30
2023-01-09T03:07:46.979Z,74.54
2023-01-09T03:10:32.940Z,74.81
2023-01-09T03:13:09.658Z,74.57
2023-01-09T03:15:44.793Z,74.83
2023-01-09T03:18:19.429Z,74.54
2023-01-09T03:20:51.555Z,74.88
2023-01-09T03:23:23.203Z,74.77
2023-01-09T03:25:54.856Z,74.99
2023-01-09T03:28:29.249Z,74.63
2023-01-09T03:31:03.351Z,75.21
2023-01-09T03:33:35.253Z,75.34
2023-01-09T03:36:08.984Z,75.59
2023-01-09T03:38:40.687Z,75.65
2023-01-09T03:41:12.405Z,75.72
2023-01-09T03:43:44.135Z,76.05
2023-01-09T03:46:17.133Z,75.87
2023-01-09T03:48:50.113Z,75.61
2023-01-09T03:51:21.895Z,75.66
2023-01-09T03:53:53.659Z,76.29
2023-01-09T03:56:25.677Z,76.60
2023-01-09T03:58:57.403Z,76.47
2023-01-09T04:01:29.142Z,76.46
2023-01-09T04:04:03.541Z,76.29
2023-01-09T04:06:37.987Z,76.64
2023-01-09T04:09:09.652Z,77.10
2023-01-09T04:11:41.337Z,76.89
2023-01-09T04:14:14.029Z,76.92
2023-01-09T04:16:45.803Z,77.77
2023-01-09T04:19:17.652Z,77.17
2023-01-09T04:21:51.338Z,77.28
2023-01-09T04:24:23.029Z,77.28
2023-01-09T04:26:56.180Z,76.88
2023-01-09T04:29:27.941Z,77.30
2023-01-09T04:31:59.662Z,77.46
2023-01-09T04:34:31.373Z,77.78
2023-01-09T04:37:06.034Z,77.68
2023-01-09T04:39:37.761Z,78.17
2023-01-09T04:42:10.257Z,78.17
2023-01-09T04:44:41.906Z,78.42
2023-01-09T04:47:13.741Z,78.54
2023-01-09T04:49:45.450Z,78.92
2023-01-09T04:52:17.168Z,78.67
2023-01-09T04:54:48.847Z,78.88
2023-01-09T04:57:20.819Z,79.74
2023-01-09T04:59:54.181Z,79.47
2023-01-09T05:02:26.155Z,79.38
2023-01-09T05:04:57.870Z,79.77
2023-01-09T05:07:29.519Z,80.21
2023-01-09T05:10:02.208Z,79.79
2023-01-09T05:12:36.973Z,79.66
2023-01-09T05:15:09.035Z,79.58
2023-01-09T05:17:40.748Z,79.51
2023-01-09T05:20:12.608Z,79.21
2023-01-09T05:22:44.265Z,78.91
2023-01-09T05:25:16.016Z,78.90
2023-01-09T05:27:47.700Z,79.04
2023-01-09T05:30:19.592Z,79.03
2023-01-09T05:32:51.226Z,79.06
2023-01-09T05:35:23.058Z,79.09
2023-01-09T05:37:54.984Z,79.33
2023-01-09T05:40:29.232Z,79.37
2023-01-09T05:43:03.902Z,78.86
2023-01-09T05:45:35.687Z,78.16
2023-01-09T05:48:07.397Z,77.78
2023-01-09T05:50:39.131Z,78.12
2023-01-09T05:53:13.721Z,78.00
2023-01-09T05:55:45.448Z,78.02
2023-01-09T05:58:17.112Z,77.70
2023-01-09T06:00:49.507Z,77.49
2023-01-09T06:03:21.208Z,77.88
2023-01-09T06:15:56.309Z,77.91
2023-01-09T06:18:28.008Z,78.15
2023-01-09T06:20:59.735Z,78.23
2023-01-09T06:23:32.609Z,78.34
2023-01-09T06:26:04.440Z,77.90
2023-01-09T06:28:38.777Z,77.64
2023-01-09T06:31:10.552Z,77.98
2023-01-09T06:33:44.360Z,77.93
2023-01-09T06:36:16.177Z,77.90
2023-01-09T06:38:48.048Z,77.86
2023-01-09T06:41:19.763Z,78.10
2023-01-09T06:43:51.522Z,77.92
2023-01-09T06:46:23.376Z,78.01
2023-01-09T06:48:55.111Z,77.71
2023-01-09T06:51:26.830Z,77.51
2023-01-09T06:53:58.637Z,78.13
2023-01-09T06:56:32.939Z,78.11
2023-01-09T06:59:07.660Z,78.48
2023-01-09T07:01:42.481Z,78.13
2023-01-09T07:04:14.370Z,78.18
2023-01-09T07:06:49.623Z,77.72
2023-01-09T07:09:21.385Z,77.65
2023-01-09T07:11:53.183Z,78.03
2023-01-09T07:14:27.967Z,77.87
2023-01-09T07:16:59.600Z,77.67
2023-01-09T07:19:31.718Z,78.06
2023-01-09T07:22:03.377Z,78.32
2023-01-09T07:24:35.139Z,78.22
2023-01-09T07:27:06.867Z,78.09
2023-01-09T07:29:39.003Z,78.21
2023-01-09T07:32:10.686Z,78.24
2023-01-09T07:34:42.381Z,77.98
2023-01-09T07:37:14.101Z,77.53
2023-01-09T07:39:45.986Z,77.55
2023-01-09T07:42:17.718Z,77.01
2023-01-09T07:44:50.666Z,77.19
2023-01-09T07:47:25.093Z,77.27
2023-01-09T07:49:56.946Z,76.99
2023-01-09T07:52:28.609Z,77.34
2023-01-09T07:55:00.397Z,77.51
2023-01-09T07:57:34.186Z,77.43
2023-01-09T08:00:07.458Z,76.97
2023-01-09T08:02:45.026Z,77.18
2023-01-09T08:05:16.951Z,77.38
2023-01-09T08:07:50.827Z,77.09
2023-01-09T08:10:22.839Z,77.11
2023-01-09T08:12:57.208Z,77.05
2023-01-09T08:15:29.028Z,77.01
2023-01-09T08:18:03.371Z,76.79
2023-01-09T08:20:35.049Z,76.66
2023-01-09T08:23:08.848Z,76.86
2023-01-09T08:25:40.575Z,77.04
2023-01-09T08:28:12.706Z,76.60
2023-01-09T08:30:47.855Z,76.78
2023-01-09T08:33:19.606Z,76.19
2023-01-09T08:35:51.504Z,76.84
2023-01-09T08:38:23.269Z,76.60
2023-01-09T08:40:57.693Z,76.86
2023-01-09T08:43:48.271Z,76.60
2023-01-09T08:46:40.699Z,76.56
2023-01-09T08:49:16.430Z,77.10
2023-01-09T08:51:48.144Z,76.87
2023-01-09T08:54:19.825Z,76.75
2023-01-09T08:56:51.790Z,76.27
2023-01-09T08:59:23.562Z,75.60
2023-01-09T09:01:55.325Z,75.29
2023-01-09T09:04:27.138Z,75.44
2023-01-09T09:06:59.358Z,75.26
2023-01-09T09:09:31.111Z,75.31
2023-01-09T09:12:05.925Z,75.10
2023-01-09T09:14:56.347Z,74.72
2023-01-09T09:17:29.011Z,74.83
2023-01-09T09:20:00.851Z,74.83
2023-01-09T09:22:32.531Z,74.34
2023-01-09T09:25:08.069Z,74.42
2023-01-09T09:27:42.738Z,74.71
2023-01-09T09:30:17.393Z,74.27
2023-01-09T09:32:49.823Z,74.32
2023-01-09T09:35:22.576Z,73.95
2023-01-09T09:37:59.832Z,74.14
2023-01-09T09:40:53.171Z,74.05
2023-01-09T09:43:56.329Z,73.70
2023-01-09T09:47:05.966Z,73.92
2023-01-09T09:50:11.968Z,73.57
2023-01-09T09:53:11.466Z,73.20
2023-01-09T09:55:45.335Z,73.00
2023-01-09T09:58:48.052Z,73.09
2023-01-09T10:01:24.837Z,73.85
2023-01-09T10:04:00.699Z,73.28
2023-01-09T10:06:42.291Z,74.10
2023-01-09T10:09:39.630Z,73.67
2023-01-09T10:12:27.221Z,73.44
2023-01-09T10:15:01.064Z,73.94
2023-01-09T10:18:00.698Z,73.70
2023-01-09T10:20:56.286Z,74.30
2023-01-09T10:23:59.787Z,73.98
2023-01-09T10:26:52.438Z,73.66
2023-01-09T10:29:56.537Z,74.05
2023-01-09T10:32:50.211Z,73.29
2023-01-09T10:35:47.985Z,72.61
2023-01-09T10:38:29.135Z,72.15
2023-01-09T10:41:08.912Z,71.87
2023-01-09T10:44:03.762Z,72.21
2023-01-09T10:46:45.671Z,71.61
2023-01-09T10:49:19.740Z,71.60
2023-01-09T10:52:10.959Z,71.23
2023-01-09T10:54:56.438Z,71.31
2023-01-09T10:57:40.873Z,71.72
2023-01-09T11:00:25.062Z,71.55
2023-01-09T11:02:56.864Z,71.38
2023-01-09T11:05:32.947Z,71.70
2023-01-09T11:08:13.998Z,71.27
2023-01-09T11:10:51.594Z,71.72
2023-01-09T11:13:26.986Z,71.07
2023-01-09T11:16:01.920Z,70.79
2023-01-09T11:18:37.679Z,71.02
2023-01-09T11:21:24.928Z,70.55
2023-01-09T11:23:57.035Z,70.31
2023-01-09T11:26:29.782Z,70.25
2023-01-09T11:29:11.987Z,70.30
2023-01-09T11:32:01.604Z,70.26
2023-01-09T11:34:36.411Z,70.04
2023-01-09T11:37:09.900Z,69.50
2023-01-09T11:39:47.865Z,70.13
2023-01-09T11:42:45.293Z,69.69
2023-01-09T11:45:20.252Z,69.04
2023-01-09T11:47:51.935Z,68.40
2023-01-09T11:50:28.819Z,68.40
2023-01-09T11:53:16.449Z,68.43
2023-01-09T11:55:56.864Z,68.15
2023-01-09T11:58:32.806Z,67.54
2023-01-09T12:01:22.861Z,67.50
2023-01-09T12:04:19.279Z,67.53
2023-01-09T12:07:15.111Z,67.04
2023-01-09T12:10:18.521Z,67.48
2023-01-09T12:13:20.977Z,67.11
2023-01-09T12:16:28.099Z,67.39
2023-01-09T12:18:59.951Z,67.41
2023-01-09T12:21:35.230Z,67.41
2023-01-09T12:24:24.397Z,67.59
2023-01-09T12:26:58.790Z,67.72
2023-01-09T12:29:56.124Z,67.14
2023-01-09T12:32:47.775Z,67.31
2023-01-09T12:35:35.756Z,67.88
2023-01-09T12:38:16.403Z,67.61
2023-01-09T12:41:13.020Z,67.66
2023-01-09T12:44:30.713Z,67.53
2023-01-09T12:47:27.324Z,67.28
2023-01-09T12:50:23.428Z,67.51
2023-01-09T12:53:16.724Z,67.39
2023-01-09T12:55:59.721Z,67.11
2023-01-09T12:58:48.983Z,67.51
2023-01-09T13:01:32.602Z,67.30
2023-01-09T13:04:29.098Z,66.62
2023-01-09T13:07:16.413Z,66.66
2023-01-09T13:09:58.749Z,65.21
2023-01-09T13:12:36.317Z,64.28
2023-01-09T13:15:14.703Z,64.46
2023-01-09T13:17:53.224Z,64.36
2023-01-09T13:20:46.918Z,63.54
2023-01-09T13:23:39.716Z,63.20
2023-01-09T13:26:28.497Z,62.97
2023-01-09T13:29:25.012Z,63.23
2023-01-09T13:32:19.485Z,63.08
2023-01-09T13:34:54.832Z,63.12
2023-01-09T13:37:32.804Z,62.72
2023-01-09T13:40:29.389Z,63.22
2023-01-09T13:43:04.497Z,63.38
2023-01-09T13:45:39.529Z,63.44
2023-01-09T13:48:11.892Z,63.35
2023-01-09T13:50:48.380Z,63.81
2023-01-09T13:53:20.202Z,64.01
2023-01-09T13:56:12.207Z,64.27
2023-01-09T13:59:24.047Z,64.50
2023-01-09T14:01:55.753Z,64.54
2023-01-09T14:04:41.366Z,64.49
2023-01-09T14:07:24.766Z,64.64
2023-01-09T14:10:06.415Z,64.80
2023-01-09T14:12:43.700Z,64.86
2023-01-09T14:15:36.004Z,64.55
2023-01-09T14:18:23.686Z,64.35
2023-01-09T14:21:01.018Z,64.61
2023-01-09T14:23:52.812Z,65.07
2023-01-09T14:26:41.501Z,65.27
2023-01-09T14:29:31.207Z,64.85
2023-01-09T14:32:21.016Z,64.70
2023-01-09T14:35:11.724Z,64.70
2023-01-09T14:37:56.439Z,64.85
2023-01-09T14:40:29.126Z,64.56
2023-01-09T14:43:14.752Z,64.30
2023-01-09T14:45:50.077Z,64.59
2023-01-09T14:48:27.186Z,64.38
2023-01-09T14:50:59.992Z,64.85
2023-01-09T14:53:36.810Z,65.04
2023-01-09T14:56:26.064Z,65.58
2023-01-09T14:59:23.772Z,64.93
2023-01-09T15:01:58.486Z,64.98
2023-01-09T15:04:35.224Z,65.59
2023-01-09T15:07:07.195Z,64.77
2023-01-09T15:09:45.368Z,65.36
2023-01-09T15:12:23.213Z,65.57
2023-01-09T15:15:24.158Z,65.62
2023-01-09T15:17:59.651Z,65.93
2023-01-09T15:20:33.453Z,65.49
2023-01-09T15:23:05.503Z,66.00
2023-01-09T15:25:40.825Z,65.30
2023-01-09T15:28:28.890Z,66.23
2023-01-09T15:31:16.762Z,65.86
2023-01-09T15:33:49.177Z,66.13
2023-01-09T15:36:24.563Z,66.06
2023-01-09T15:38:57.005Z,66.29
2023-01-09T15:41:50.866Z,66.16
2023-01-09T15:44:26.334Z,65.78
2023-01-09T15:46:59.968Z,65.89
2023-01-09T15:49:33.489Z,65.72
2023-01-09T15:52:12.030Z,66.57
2023-01-09T15:54:49.097Z,66.83
2023-01-09T15:57:27.053Z,66.30
2023-01-09T16:00:27.421Z,66.63
2023-01-09T16:03:10.098Z,66.76
2023-01-09T16:05:45.084Z,66.60
2023-01-09T16:08:33.242Z,66.93
2023-01-09T16:11:16.806Z,66.43
2023-01-09T16:13:54.856Z,66.52
2023-01-09T16:16:33.707Z,66.86
2023-01-09T16:19:08.361Z,66.52
2023-01-09T16:21:44.282Z,67.28
2023-01-09T16:24:18.243Z,67.25
2023-01-09T16:27:12.716Z,66.91
2023-01-09T16:29:50.087Z,67.60
2023-01-09T16:32:31.938Z,66.99
2023-01-09T16:35:16.015Z,67.52
2023-01-09T16:37:51.913Z,66.89
2023-01-09T16:40:25.979Z,67.30
2023-01-09T16:43:07.133Z,66.95
2023-01-09T16:45:42.725Z,67.56
2023-01-09T16:48:21.911Z,67.27
2023-01-09T16:50:53.903Z,67.23
2023-01-09T16:53:27.236Z,67.50
2023-01-09T16:59:01.724Z,67.52
2023-01-09T17:01:35.616Z,67.64
2023-01-09T17:04:17.517Z,67.87
2023-01-09T17:06:49.628Z,67.23
2023-01-09T17:09:29.465Z,67.69
2023-01-09T17:12:03.940Z,68.09
2023-01-09T17:14:37.905Z,67.72
2023-01-09T17:17:17.359Z,67.33
2023-01-09T17:20:16.431Z,67.79
2023-01-09T17:22:49.375Z,67.62
2023-01-09T17:25:41.929Z,67.89
2023-01-09T17:28:40.183Z,68.13
2023-01-09T17:31:12.693Z,68.17
2023-01-09T17:33:46.714Z,68.00
2023-01-09T17:36:28.629Z,67.92
2023-01-09T17:42:25.893Z,68.71
2023-01-09T17:45:05.938Z,68.37
2023-01-09T17:47:37.863Z,68.64
2023-01-09T17:50:25.226Z,68.90
2023-01-09T17:52:57.050Z,69.08
2023-01-09T18:04:57.556Z,70.04
2023-01-09T18:07:33.369Z,69.34
2023-01-09T18:10:05.765Z,69.77
2023-01-09T18:16:26.876Z,69.85
2023-01-09T18:19:03.993Z,70.01
2023-01-09T18:22:00.672Z,70.17
2023-01-09T18:24:57.772Z,70.19
2023-01-09T18:27:54.755Z,70.17
2023-01-09T18:30:55.940Z,70.04
2023-01-09T18:33:54.669Z,70.13
2023-01-09T18:36:31.966Z,70.40
2023-01-09T18:39:10.403Z,70.56
2023-01-09T18:48:00.402Z,70.50
2023-01-09T18:50:36.231Z,71.15
2023-01-09T18:53:14.823Z,71.02
2023-01-09T18:55:48.944Z,70.84
2023-01-09T18:58:21.035Z,70.31
2023-01-09T19:00:56.608Z,70.31
2023-01-09T19:06:33.284Z,70.68
2023-01-09T19:12:06.324Z,71.00
2023-01-09T19:14:46.385Z,71.05
2023-01-09T19:17:22.327Z,71.14
2023-01-09T19:19:58.367Z,71.11
2023-01-09T19:22:30.440Z,71.55
2023-01-09T19:25:06.971Z,71.69
2023-01-09T19:27:40.924Z,71.60
2023-01-09T19:30:13.044Z,72.12
2023-01-09T19:32:44.767Z,71.77
2023-01-09T19:35:17.614Z,71.72
2023-01-09T19:37:49.299Z,71.83
2023-01-09T19:40:21.187Z,72.12
2023-01-09T19:42:53.980Z,72.05
2023-01-09T19:45:25.755Z,71.88
2023-01-09T19:47:57.485Z,71.91
2023-01-09T19:50:29.228Z,71.81
2023-01-09T19:53:00.900Z,71.76
2023-01-09T19:55:32.897Z,71.87
2023-01-09T19:58:05.179Z,71.76
2023-01-09T20:00:37.214Z,71.89
2023-01-09T20:03:12.033Z,72.20
2023-01-09T20:05:43.790Z,72.04
2023-01-09T20:08:17.310Z,72.16
2023-01-09T20:10:49.159Z,72.58
2023-01-09T20:13:21.050Z,72.04
2023-01-09T20:16:00.769Z,72.21
2023-01-09T20:18:38.924Z,72.16
2023-01-09T20:24:00.189Z,72.23
2023-01-09T20:26:37.910Z,72.40
2023-01-09T20:29:09.756Z,72.25
2023-01-09T20:31:43.921Z,72.23
2023-01-09T20:34:16.310Z,72.35
2023-01-09T20:36:48.319Z,72.08
2023-01-09T20:39:20.310Z,72.05
2023-01-09T20:41:52.069Z,72.15
2023-01-09T20:44:23.768Z,72.13
2023-01-09T20:46:55.840Z,71.85
2023-01-09T20:49:27.462Z,71.91
2023-01-09T20:52:01.253Z,72.05
2023-01-09T20:54:33.047Z,72.20
2023-01-09T20:57:06.736Z,72.22
2023-01-09T20:59:38.471Z,72.32
2023-01-09T21:02:14.449Z,72.25
2023-01-09T21:04:46.146Z,72.23
2023-01-09T21:07:17.960Z,72.35
2023-01-09T21:09:49.628Z,72.34
2023-01-09T21:12:24.798Z,72.43
2023-01-09T21:15:02.232Z,72.50
2023-01-09T21:17:38.413Z,72.42
2023-01-09T21:20:13.332Z,72.14
2023-01-09T21:22:45.354Z,72.32
2023-01-09T21:25:17.177Z,72.57
2023-01-09T21:27:51.073Z,72.60
2023-01-09T21:30:22.847Z,72.33
2023-01-09T21:32:54.651Z,72.08
2023-01-09T21:35:26.697Z,72.20
2023-01-09T21:38:00.853Z,72.41
2023-01-09T21:40:32.530Z,72.24
2023-01-09T21:43:22.899Z,72.43
2023-01-09T21:46:20.373Z,72.56
2023-01-09T21:48:52.092Z,72.74
2023-01-09T21:51:23.778Z,72.02
2023-01-09T21:53:55.487Z,72.59
2023-01-09T21:56:27.163Z,72.67
2023-01-09T21:58:58.921Z,72.82
2023-01-09T22:01:30.715Z,72.86
2023-01-09T22:04:03.946Z,72.80
2023-01-09T22:06:40.284Z,72.67
2023-01-09T22:09:12.496Z,72.79
2023-01-09T22:11:44.546Z,72.92
2023-01-09T22:14:18.968Z,72.90
2023-01-09T22:16:50.746Z,73.13
2023-01-09T22:19:22.679Z,73.37
2023-01-09T22:21:54.328Z,73.47
2023-01-09T22:24:26.514Z,73.49
2023-01-09T22:26:58.238Z,73.53
2023-01-09T22:29:30.055Z,73.49
2023-01-09T22:32:02.193Z,73.22
2023-01-09T22:34:33.997Z,73.56
2023-01-09T22:37:05.681Z,73.42
2023-01-09T22:39:39.784Z,73.90
2023-01-09T22:42:11.449Z,73.58
2023-01-09T22:44:43.146Z,73.86
2023-01-09T22:47:14.842Z,73.92
2023-01-09T22:49:52.891Z,73.74
2023-01-09T22:52:25.981Z,73.72
2023-01-09T22:54:57.657Z,73.84
2023-01-09T22:57:32.559Z,74.34
2023-01-09T23:00:08.260Z,74.00
2023-01-09T23:02:40.152Z,73.81
2023-01-09T23:05:11.994Z,74.02
2023-01-09T23:07:44.153Z,74.25
2023-01-09T23:10:16.319Z,73.98
2023-01-09T23:12:51.301Z,74.07
2023-01-09T23:15:23.047Z,74.06
2023-01-09T23:17:54.750Z,73.58
2023-01-09T23:20:28.499Z,73.96
2023-01-09T23:23:00.188Z,73.86
2023-01-09T23:25:31.938Z,73.80
2023-01-09T23:28:03.719Z,73.38
2023-01-09T23:30:35.467Z,73.28
2023-01-09T23:33:07.129Z,73.25
2023-01-09T23:35:39.017Z,73.17
2023-01-09T23:38:14.067Z,73.08
2023-01-09T23:40:45.744Z,73.03
2023-01-09T23:43:17.393Z,72.49
2023-01-09T23:45:51.026Z,72.67
2023-01-09T23:48:22.743Z,72.65
2023-01-09T23:50:55.153Z,72.65
2023-01-09T23:53:26.971Z,72.82
2023-01-09T23:55:59.544Z,72.78
2023-01-09T23:58:31.256Z,72.78
